AirNav   Pilot Hours Calculator
 
 862 users online  

58C Jana Airport
Edgerton, Wisconsin, USA

GOING TO EDGERTON?


FAA INFORMATION EFFECTIVE 26 JANUARY 2023

Location

FAA Identifier: 58C
Lat/Long: 42-52-22.0160N 089-04-32.4050W
42-52.366933N 089-04.540083W
42.8727822,-89.0756681
(estimated)
Elevation: 842 ft. / 257 m (estimated)
Variation: 00W (1985)
From city: 3 miles N of EDGERTON, WI
Time zone: UTC -6 (UTC -5 during Daylight Saving Time)
Zip code: 53534

Airport Operations

Airport use: Open to the public
Activation date: 10/1947
Control tower: no
ARTCC: CHICAGO CENTER
FSS: GREEN BAY FLIGHT SERVICE STATION
NOTAMs facility: GRB (NOTAM-D service available)
Attendance: IREG
Wind indicator: yes
Segmented circle: no

Airport Communications

CTAF: 122.9
WX AWOS-3 at JVL (15 nm S): PHONE 608-758-1723
WX ASOS at MSN (20 nm NW): PHONE 608-249-0615

Nearby radio navigation aids

VOR radial/distance  VOR name  Freq  Var
JVLr001/18.9JANESVILLE VOR/DME114.3003E
MSNr142/20.0MADISON VORTAC108.6003E
BAEr245/37.7BADGER VOR/DME116.4002E

 
NDB name  Hdg/Dist  Freq  Var  ID
ROCK RIVER221/23.737101WRYV .-. -.-- ...-

Airport Services

Parking: tiedowns
Bottled oxygen: NONE
Bulk oxygen: NONE

Runway Information

Runway 18/36

Dimensions: 2305 x 135 ft. / 703 x 41 m
Surface: turf, in good condition
Runway edge markings: THR MKD BY RED METAL A-FRAMES; EDGES MKD BY WHITE POLES AND ORANGE BARRELS.
Operational restrictions: RWY 18/36 CLSD DEC 1 - APR 1.
RUNWAY 18  RUNWAY 36
Latitude: 42-52.550500N42-52.166833N
Longitude: 089-04.540000W089-04.540000W
Elevation: 842.0 ft.840.0 ft.
Traffic pattern: leftleft
Markings: nonenone
Runway end identifier lights: nono
Obstructions: 41 ft. tree, 450 ft. from runway, 130 ft. left of centerline, 11:1 slope to clear
APCH RATIO 20:1 TO DSPLCD THR
none

Airport Ownership and Management from official FAA records

Ownership: Privately-owned
Owner: BETTE WILEMAN
720 HILLSIDE RD
EDGERTON, WI 53704
Phone 608-295-6157
Manager: DON BECKER
406 HIGHWAY STREET
EDGERTON, WI 53534
Phone 608-884-3403
ADDNL FONE 608-289-6859.

Airport Operational Statistics

Aircraft based on the field: 9
Single engine airplanes: 4
Ultralights: 5
    
Aircraft operations: avg 77/week *
50% transient general aviation
50% local general aviation
<1% military
* for 12-month period ending 09 June 2022

Additional Remarks

A51-18 DTHR MKD WITH RED METAL A-FRAMES.
FOR CD CTC MADISON APP/DEP CON AT 608-249-8240. WHEN MADISON APCH CLSD, FOR CD CTC CHICAGO ARTCC AT 630-906-8921.

Instrument Procedures

There are no published instrument procedures at 58C.

Some nearby airports with instrument procedures:

61C - Fort Atkinson Municipal Airport (13 nm NE)
87Y - Blackhawk Airfield (15 nm N)
KJVL - Southern Wisconsin Regional Airport (15 nm S)
KMSN - Dane County Regional Airport-Truax Field (20 nm NW)
44C - Beloit Airport (23 nm S)
 
Loc | Ops | Rwys | IFR | FBO | Links
Com | Nav | Svcs | Stats | Notes
Area around 58C (Jana Airport)
 
Road maps at: MapQuest Bing Google
 
Aerial photo
WARNING: Photo may not be current or correct
Aerial photo of 58C (Jana Airport)
Do you have a better or more recent aerial photo of Jana Airport that you would like to share? If so, please send us your photo.

 
Sectional chart

 
Airport distance calculator
Flying to Jana Airport? Find the distance to fly.

From to 58C

Sunrise and sunset
Times for 05-Feb-2023
 Local
(UTC-6)
 Zulu
(UTC)
Morning civil twilight06:3812:38
Sunrise07:0813:08
Sunset17:1323:13
Evening civil twilight17:4323:43

Current date and time
Zulu (UTC)  06-Feb-2023 04:08:56
Local (UTC-6)  05-Feb-2023 22:08:56
 
METAR
KJVL 
16nm S 
060355Z AUTO 00000KT 3SM BR CLR M03/M03 A3013 RMK AO2
KMSN 
20nm NW 
060353Z 35004KT 8SM CLR M06/M09 A3013 RMK AO2 SLP215 T10611089
KRYV 
24nm NE 
060355Z AUTO 00000KT 10SM CLR M10/M12 A3013 RMK AO2 T10981124
KC29 
25nm NW 
060355Z AUTO 00000KT 10SM CLR M10/M11 A3014 RMK AO1 T11031113
KEFT 
28nm SW 
060355Z AUTO 34004KT 10SM CLR M02/M05 A3010 RMK AO2 T10201048
TAF
KJVL 
16nm S 
052104Z 0521/0618 31009KT P6SM SCT080 FM052200 29010KT P6SM SCT100 FM060200 VRB04KT P6SM SCT180 FM061400 13005KT P6SM BKN150 FM061600 14009KT P6SM BKN220
KMSN 
20nm NW 
052104Z 0521/0618 32008KT P6SM BKN250 FM060800 00000KT P6SM BKN030 FM061200 VRB03KT P6SM BKN019 FM061500 14008KT P6SM BKN030 FM061700 15010G19KT P6SM OVC040
NOTAMs
Click for the latest NOTAMs
NOTAMs are issued by the DoD/FAA and will open in a separate window not controlled by AirNav.

 

 
 

Would you like to see your business listed on this page?

 If your business provides an interesting product or service to pilots, flight crews, aircraft, or users of the Jana Airport, you should consider listing it here.  To start the listing process, click on the button below
 
Add a business
 

Other Pages about Jana Airport

Page from the Wisconsin airport directory (PDF)
 
Update a link
 
Copyright © AirNav, LLC. All rights reserved. Privacy Policy  Contact